createdAt,value
2023-04-28T00:01:42.351Z,2.52
2023-04-28T00:04:09.501Z,2.48
2023-04-28T00:06:37.361Z,2.18
2023-04-28T00:09:04.783Z,2.21
2023-04-28T00:11:32.631Z,2.33
2023-04-28T00:13:59.286Z,2.33
2023-04-28T00:16:26.369Z,2.43
2023-04-28T00:18:53.066Z,2.48
2023-04-28T00:21:19.680Z,2.53
2023-04-28T00:23:46.451Z,2.57
2023-04-28T00:26:13.123Z,2.52
2023-04-28T00:28:40.022Z,2.55
2023-04-28T00:31:14.233Z,2.63
2023-04-28T00:33:41.102Z,2.53
2023-04-28T00:36:08.196Z,2.47
2023-04-28T00:38:35.220Z,2.46
2023-04-28T00:41:01.968Z,2.42
2023-04-28T00:43:29.235Z,2.34
2023-04-28T00:45:56.629Z,2.45
2023-04-28T00:48:24.553Z,2.18
2023-04-28T00:50:52.108Z,2.79
2023-04-28T00:53:19.002Z,2.58
2023-04-28T00:55:47.225Z,2.91
2023-04-28T00:58:13.880Z,2.80
2023-04-28T01:00:40.786Z,2.67
2023-04-28T01:03:08.144Z,2.64
2023-04-28T01:05:35.294Z,2.64
2023-04-28T01:08:03.245Z,2.57
2023-04-28T01:10:29.913Z,2.58
2023-04-28T01:12:56.684Z,2.59
2023-04-28T01:15:23.581Z,2.54
2023-04-28T01:17:50.320Z,2.46
2023-04-28T01:20:17.088Z,2.40
2023-04-28T01:22:43.936Z,2.41
2023-04-28T01:25:10.654Z,2.39
2023-04-28T01:27:37.388Z,2.33
2023-04-28T01:30:04.685Z,2.37
2023-04-28T01:32:31.481Z,2.28
2023-04-28T01:34:58.143Z,2.33
2023-04-28T01:37:25.022Z,2.26
2023-04-28T01:39:51.769Z,2.20
2023-04-28T01:42:18.450Z,2.30
2023-04-28T01:44:45.176Z,2.20
2023-04-28T01:47:11.831Z,2.16
2023-04-28T01:49:38.450Z,2.11
2023-04-28T01:52:05.378Z,1.92
2023-04-28T01:54:32.071Z,2.16
2023-04-28T01:56:58.779Z,2.24
2023-04-28T01:59:25.607Z,2.30
2023-04-28T02:01:52.306Z,2.38
2023-04-28T02:04:19.199Z,2.42
2023-04-28T02:06:46.187Z,2.49
2023-04-28T02:09:13.037Z,2.43
2023-04-28T02:11:39.697Z,2.26
2023-04-28T02:14:06.721Z,2.36
2023-04-28T02:16:33.981Z,2.25
2023-04-28T02:19:00.927Z,2.45
2023-04-28T02:21:28.166Z,2.51
2023-04-28T02:23:54.854Z,2.45
2023-04-28T02:26:21.596Z,2.47
2023-04-28T02:28:50.728Z,2.27
2023-04-28T02:31:18.272Z,2.35
2023-04-28T02:33:44.949Z,2.19
2023-04-28T02:36:11.674Z,2.16
2023-04-28T02:38:38.721Z,2.03
2023-04-28T02:41:07.647Z,1.89
2023-04-28T02:43:34.935Z,1.56
2023-04-28T02:46:03.526Z,1.50
2023-04-28T02:48:30.441Z,1.45
2023-04-28T02:50:57.130Z,1.43
2023-04-28T02:53:23.930Z,1.48
2023-04-28T02:55:50.680Z,1.38
2023-04-28T02:58:18.485Z,1.30
2023-04-28T03:00:46.176Z,1.31
2023-04-28T03:03:13.119Z,1.51
2023-04-28T03:05:40.065Z,1.57
2023-04-28T03:08:07.244Z,1.55
2023-04-28T03:10:33.968Z,1.46
2023-04-28T03:13:00.668Z,1.58
2023-04-28T03:15:27.938Z,1.44
2023-04-28T03:17:54.718Z,1.36
2023-04-28T03:20:21.451Z,1.25
2023-04-28T03:22:48.223Z,1.15
2023-04-28T03:25:14.928Z,1.18
2023-04-28T03:27:41.559Z,1.11
2023-04-28T03:30:08.775Z,1.08
2023-04-28T03:32:35.510Z,1.11
2023-04-28T03:35:02.217Z,1.12
2023-04-28T03:37:28.950Z,1.03
2023-04-28T03:39:55.601Z,1.01
2023-04-28T03:42:22.522Z,1.01
2023-04-28T03:44:49.138Z,0.87
2023-04-28T03:47:15.843Z,0.89
2023-04-28T03:49:42.686Z,0.79
2023-04-28T03:52:09.365Z,0.62
2023-04-28T03:54:36.226Z,0.78
2023-04-28T03:57:04.703Z,0.51
2023-04-28T03:59:31.423Z,0.80
2023-04-28T04:01:58.552Z,1.04
2023-04-28T04:04:25.517Z,1.52
2023-04-28T04:06:52.937Z,1.74
2023-04-28T04:09:19.744Z,2.21
2023-04-28T04:11:46.733Z,2.41
2023-04-28T04:14:13.478Z,2.80
2023-04-28T04:16:40.694Z,3.12
2023-04-28T04:19:07.403Z,3.58
2023-04-28T04:21:34.076Z,3.95
2023-04-28T04:24:01.593Z,4.15
2023-04-28T04:26:28.327Z,4.75
2023-04-28T04:28:54.983Z,5.26
2023-04-28T04:31:22.901Z,5.86
2023-04-28T04:33:49.925Z,6.22
2023-04-28T04:36:16.731Z,6.57
2023-04-28T04:38:43.437Z,6.87
2023-04-28T04:41:10.072Z,7.07
2023-04-28T04:43:36.792Z,7.27
2023-04-28T04:46:04.307Z,7.48
2023-04-28T04:48:31.108Z,7.61
2023-04-28T04:50:57.924Z,7.96
2023-04-28T04:53:24.709Z,8.28
2023-04-28T04:55:51.488Z,8.61
2023-04-28T04:58:19.454Z,8.86
2023-04-28T05:00:46.203Z,8.73
2023-04-28T05:03:13.091Z,9.27
2023-04-28T05:05:40.440Z,9.61
2023-04-28T05:08:07.172Z,9.88
2023-04-28T05:10:34.200Z,10.14
2023-04-28T05:13:00.852Z,10.41
2023-04-28T05:15:27.450Z,10.71
2023-04-28T05:17:54.311Z,10.87
2023-04-28T05:20:21.308Z,11.06
2023-04-28T05:22:48.041Z,11.24
2023-04-28T05:25:14.844Z,11.17
2023-04-28T05:27:41.760Z,11.05
2023-04-28T05:30:10.533Z,11.02
2023-04-28T05:32:38.087Z,11.00
2023-04-28T05:35:05.388Z,10.88
2023-04-28T05:37:32.013Z,10.40
2023-04-28T05:39:58.666Z,10.05
2023-04-28T05:42:25.423Z,10.10
2023-04-28T05:44:59.722Z,10.20
2023-04-28T05:47:26.755Z,10.55
2023-04-28T05:49:54.417Z,11.13
2023-04-28T05:52:21.224Z,11.70
2023-04-28T05:54:47.942Z,12.23
2023-04-28T05:57:15.695Z,12.48
2023-04-28T05:59:42.812Z,12.47
2023-04-28T06:02:09.637Z,12.61
2023-04-28T06:04:36.589Z,12.71
2023-04-28T06:07:03.596Z,12.65
2023-04-28T06:09:30.463Z,12.23
2023-04-28T06:11:59.749Z,12.31
2023-04-28T06:14:26.448Z,12.31
2023-04-28T06:16:53.241Z,12.36
2023-04-28T06:19:20.067Z,12.65
2023-04-28T06:21:46.868Z,13.09
2023-04-28T06:24:13.657Z,13.16
2023-04-28T06:26:40.462Z,13.29
2023-04-28T06:29:07.210Z,13.32
2023-04-28T06:31:34.015Z,13.84
2023-04-28T06:34:00.773Z,13.77
2023-04-28T06:36:28.414Z,13.36
2023-04-28T06:38:55.403Z,13.33
2023-04-28T06:41:22.242Z,13.58
2023-04-28T06:43:48.886Z,13.57
2023-04-28T06:46:15.765Z,13.98
2023-04-28T06:48:42.778Z,14.44
2023-04-28T06:51:09.581Z,14.48
2023-04-28T06:53:36.416Z,14.56
2023-04-28T06:56:03.363Z,14.71
2023-04-28T06:58:30.108Z,14.69
2023-04-28T07:00:57.038Z,14.45
2023-04-28T07:03:23.858Z,14.55
2023-04-28T07:05:50.726Z,14.75
2023-04-28T07:08:17.890Z,14.88
2023-04-28T07:10:44.643Z,14.47
2023-04-28T07:13:11.927Z,14.11
2023-04-28T07:15:38.991Z,14.10
2023-04-28T07:18:05.828Z,14.60
2023-04-28T07:20:32.558Z,14.59
2023-04-28T07:22:59.251Z,13.84
2023-04-28T07:25:26.252Z,13.97
2023-04-28T07:27:54.336Z,14.02
2023-04-28T07:30:27.956Z,14.17
2023-04-28T07:32:55.570Z,14.69
2023-04-28T07:35:22.897Z,14.58
2023-04-28T07:37:49.718Z,14.32
2023-04-28T07:40:16.543Z,13.75
2023-04-28T07:42:43.295Z,13.47
2023-04-28T07:45:10.992Z,13.39
2023-04-28T07:47:38.426Z,13.42
2023-04-28T07:50:06.754Z,13.29
2023-04-28T07:52:34.077Z,13.29
2023-04-28T07:55:03.134Z,13.45
2023-04-28T07:57:30.490Z,14.27
2023-04-28T07:59:57.314Z,14.37
2023-04-28T08:02:24.224Z,14.00
2023-04-28T08:04:51.422Z,13.94
2023-04-28T08:07:21.218Z,14.12
2023-04-28T08:09:48.450Z,14.26
2023-04-28T08:12:15.757Z,14.81
2023-04-28T08:14:42.894Z,15.06
2023-04-28T08:17:09.847Z,14.58
2023-04-28T08:19:36.769Z,14.29
2023-04-28T08:22:07.496Z,14.24
2023-04-28T08:24:34.693Z,14.34
2023-04-28T08:27:06.050Z,13.95
2023-04-28T08:29:33.438Z,14.30
2023-04-28T08:32:01.478Z,14.75
2023-04-28T08:34:28.268Z,15.03
2023-04-28T08:36:55.024Z,15.23
2023-04-28T08:39:24.105Z,15.20
2023-04-28T08:41:51.700Z,14.32
2023-04-28T08:44:19.206Z,13.91
2023-04-28T08:46:47.548Z,13.97
2023-04-28T08:49:19.005Z,13.82
2023-04-28T08:51:58.991Z,13.83
2023-04-28T08:54:31.710Z,14.26
2023-04-28T08:56:58.861Z,14.60
2023-04-28T08:59:26.481Z,14.83
2023-04-28T09:01:53.323Z,14.77
2023-04-28T09:04:21.416Z,14.73
2023-04-28T09:06:49.015Z,14.18
2023-04-28T09:09:24.071Z,13.50
2023-04-28T09:11:59.878Z,13.20
2023-04-28T09:14:33.503Z,13.50
2023-04-28T09:17:01.320Z,13.43
2023-04-28T09:19:39.781Z,12.83
2023-04-28T09:22:18.224Z,12.45
2023-04-28T09:24:53.848Z,12.31
2023-04-28T09:27:28.318Z,12.10
2023-04-28T09:29:55.330Z,12.19
2023-04-28T09:32:23.675Z,12.17
2023-04-28T09:34:57.211Z,12.12
2023-04-28T09:37:27.539Z,11.94
2023-04-28T09:39:55.177Z,11.86
2023-04-28T09:42:37.830Z,12.42
2023-04-28T09:45:10.196Z,12.28
2023-04-28T09:47:46.675Z,12.32
2023-04-28T09:50:17.328Z,12.32
2023-04-28T09:52:49.113Z,12.50
2023-04-28T09:55:16.353Z,12.66
2023-04-28T09:57:45.423Z,12.65
2023-04-28T10:00:12.952Z,12.55
2023-04-28T10:02:43.863Z,12.73
2023-04-28T10:05:11.432Z,12.85
2023-04-28T10:07:39.524Z,13.31
2023-04-28T10:10:08.330Z,13.77
2023-04-28T10:12:38.711Z,14.18
2023-04-28T10:15:07.967Z,14.01
2023-04-28T10:17:52.403Z,13.82
2023-04-28T10:20:22.021Z,13.18
2023-04-28T10:23:24.500Z,13.01
2023-04-28T10:25:57.505Z,12.91
2023-04-28T10:28:25.022Z,12.86
2023-04-28T10:31:12.364Z,13.46
2023-04-28T10:33:41.693Z,13.54
2023-04-28T10:36:09.083Z,13.45
2023-04-28T10:38:37.239Z,13.44
2023-04-28T10:41:04.640Z,13.35
2023-04-28T10:43:37.266Z,13.14
2023-04-28T10:46:09.171Z,13.06
2023-04-28T10:48:49.111Z,13.30
2023-04-28T10:51:15.799Z,14.01
2023-04-28T10:53:45.716Z,14.66
2023-04-28T10:56:19.596Z,15.16
2023-04-28T10:58:49.174Z,15.07
2023-04-28T11:01:19.452Z,14.66
2023-04-28T11:03:52.620Z,14.54
2023-04-28T11:06:40.242Z,14.40
2023-04-28T11:09:15.761Z,14.52
2023-04-28T11:12:13.814Z,14.56
2023-04-28T11:14:41.014Z,14.56
2023-04-28T11:17:11.658Z,14.36
2023-04-28T11:19:43.950Z,14.27
2023-04-28T11:22:18.669Z,14.33
2023-04-28T11:25:05.903Z,14.84
2023-04-28T11:27:34.689Z,15.14
2023-04-28T11:30:06.028Z,14.95
2023-04-28T11:32:34.539Z,14.60
2023-04-28T11:35:01.812Z,14.42
2023-04-28T11:37:28.720Z,14.80
2023-04-28T11:39:55.539Z,14.82
2023-04-28T11:42:22.328Z,14.20
2023-04-28T11:44:54.940Z,14.22
2023-04-28T11:47:33.916Z,14.49
2023-04-28T11:50:01.672Z,14.84
2023-04-28T11:52:28.557Z,15.01
2023-04-28T11:55:01.126Z,15.20
2023-04-28T11:57:28.358Z,14.78
2023-04-28T12:00:19.482Z,14.52
2023-04-28T12:02:46.815Z,14.47
2023-04-28T12:05:17.135Z,14.87
2023-04-28T12:07:45.942Z,15.03
2023-04-28T12:10:17.462Z,14.81
2023-04-28T12:12:51.839Z,14.69
2023-04-28T12:15:22.156Z,14.71
2023-04-28T12:17:51.135Z,14.97
2023-04-28T12:20:39.759Z,15.10
2023-04-28T12:23:08.147Z,14.98
2023-04-28T12:25:45.710Z,14.77
2023-04-28T12:28:12.689Z,14.83
2023-04-28T12:30:42.072Z,14.67
2023-04-28T12:33:25.396Z,14.35
2023-04-28T12:35:53.856Z,13.96
2023-04-28T12:38:20.715Z,13.76
2023-04-28T12:40:47.467Z,13.89
2023-04-28T12:43:14.193Z,14.23
2023-04-28T12:45:41.913Z,14.12
2023-04-28T12:48:08.596Z,13.87
2023-04-28T12:50:35.268Z,13.62
2023-04-28T12:53:01.958Z,13.63
2023-04-28T12:55:29.825Z,13.58
2023-04-28T12:57:56.524Z,13.73
2023-04-28T13:00:25.736Z,13.81
2023-04-28T13:02:53.510Z,13.94
2023-04-28T13:05:20.379Z,14.42
2023-04-28T13:07:47.682Z,14.72
2023-04-28T13:10:14.431Z,14.86
2023-04-28T13:12:41.725Z,14.90
2023-04-28T13:15:08.981Z,14.94
2023-04-28T13:17:36.850Z,14.90
2023-04-28T13:20:05.412Z,14.74
2023-04-28T13:22:32.553Z,14.85
2023-04-28T13:24:59.368Z,14.26
2023-04-28T13:27:26.111Z,14.36
2023-04-28T13:29:52.897Z,14.27
2023-04-28T13:32:19.637Z,14.59
2023-04-28T13:34:46.915Z,14.71
2023-04-28T13:37:13.925Z,14.82
2023-04-28T13:39:40.837Z,14.89
2023-04-28T13:42:07.842Z,14.86
2023-04-28T13:44:34.658Z,14.87
2023-04-28T13:47:01.460Z,15.05
2023-04-28T13:49:28.256Z,15.16
2023-04-28T13:51:54.876Z,15.15
2023-04-28T13:54:22.035Z,14.98
2023-04-28T13:56:48.816Z,14.83
2023-04-28T13:59:15.761Z,14.88
2023-04-28T14:01:42.693Z,14.73
2023-04-28T14:04:09.673Z,14.84
2023-04-28T14:06:37.401Z,14.69
2023-04-28T14:09:04.272Z,14.54
2023-04-28T14:11:31.037Z,14.60
2023-04-28T14:13:57.765Z,14.79
2023-04-28T14:16:26.717Z,14.68
2023-04-28T14:18:55.847Z,14.44
2023-04-28T14:21:22.595Z,14.52
2023-04-28T14:23:49.530Z,14.54
2023-04-28T14:26:16.258Z,14.14
2023-04-28T14:28:42.967Z,14.55
2023-04-28T14:31:09.865Z,14.55
2023-04-28T14:33:37.285Z,14.56
2023-04-28T14:36:04.202Z,14.42
2023-04-28T14:38:31.023Z,14.43
2023-04-28T14:40:58.255Z,14.43
2023-04-28T14:43:25.187Z,14.50
2023-04-28T14:45:52.625Z,14.48
2023-04-28T14:48:20.512Z,14.66
2023-04-28T14:50:47.888Z,14.78
2023-04-28T14:53:14.776Z,14.82
2023-04-28T14:55:41.514Z,14.69
2023-04-28T14:58:09.327Z,14.56
2023-04-28T15:00:36.462Z,14.37
2023-04-28T15:03:04.719Z,14.31
2023-04-28T15:05:32.841Z,14.28
2023-04-28T15:07:59.519Z,14.26
2023-04-28T15:10:32.745Z,14.22
2023-04-28T15:12:59.439Z,14.25
2023-04-28T15:15:26.371Z,14.38
2023-04-28T15:17:53.286Z,14.60
2023-04-28T15:20:20.025Z,14.72
2023-04-28T15:22:46.755Z,14.56
2023-04-28T15:25:13.609Z,14.33
2023-04-28T15:27:40.363Z,14.25
2023-04-28T15:30:08.121Z,14.25
2023-04-28T15:32:37.465Z,14.35
2023-04-28T15:35:04.486Z,14.44
2023-04-28T15:37:43.235Z,14.46
2023-04-28T15:40:15.637Z,14.38
2023-04-28T15:42:45.059Z,14.34
2023-04-28T15:45:12.121Z,14.36
2023-04-28T15:47:39.414Z,14.29
2023-04-28T15:50:08.387Z,14.33
2023-04-28T15:52:35.025Z,14.21
2023-04-28T15:55:01.977Z,14.26
2023-04-28T15:57:30.026Z,14.15
2023-04-28T15:59:56.923Z,14.04
2023-04-28T16:02:24.003Z,14.15
2023-04-28T16:04:51.454Z,14.07
2023-04-28T16:07:18.494Z,14.06
2023-04-28T16:09:45.271Z,14.07
2023-04-28T16:12:12.758Z,13.93
2023-04-28T16:14:39.616Z,13.90
2023-04-28T16:17:06.376Z,13.89
2023-04-28T16:19:33.744Z,13.71
2023-04-28T16:22:01.600Z,13.81
2023-04-28T16:24:28.945Z,13.69
2023-04-28T16:26:56.287Z,13.68
2023-04-28T16:29:23.996Z,13.64
2023-04-28T16:31:50.921Z,13.53
2023-04-28T16:34:19.762Z,13.34
2023-04-28T16:36:46.744Z,13.23
2023-04-28T16:39:13.446Z,13.15
2023-04-28T16:41:40.150Z,13.06
2023-04-28T16:44:07.020Z,12.89
2023-04-28T16:46:33.978Z,12.71
2023-04-28T16:49:00.817Z,12.66
2023-04-28T16:51:28.589Z,12.63
2023-04-28T16:53:55.856Z,12.54
2023-04-28T16:56:22.566Z,12.53
2023-04-28T16:58:49.336Z,12.42
2023-04-28T17:01:17.460Z,12.34
2023-04-28T17:03:44.998Z,12.28
2023-04-28T17:06:12.376Z,12.10
2023-04-28T17:08:42.430Z,12.16
2023-04-28T17:11:09.471Z,12.15
2023-04-28T17:13:36.280Z,12.10
2023-04-28T17:16:04.247Z,12.05
2023-04-28T17:18:31.293Z,11.91
2023-04-28T17:20:58.236Z,11.84
2023-04-28T17:23:27.841Z,11.70
2023-04-28T17:25:54.621Z,11.53
2023-04-28T17:28:21.472Z,11.61
2023-04-28T17:30:48.082Z,11.58
2023-04-28T17:33:15.371Z,11.57
2023-04-28T17:35:43.029Z,11.46
2023-04-28T17:38:09.775Z,11.45
2023-04-28T17:40:36.993Z,11.38
2023-04-28T17:43:04.310Z,11.37
2023-04-28T17:45:31.105Z,11.33
2023-04-28T17:48:00.557Z,11.25
2023-04-28T17:50:27.481Z,11.21
2023-04-28T17:52:54.491Z,11.20
2023-04-28T17:55:21.228Z,11.15
2023-04-28T17:57:47.910Z,11.08
2023-04-28T18:00:14.903Z,11.01
2023-04-28T18:02:41.956Z,10.97
2023-04-28T18:05:09.266Z,10.94
2023-04-28T18:07:36.581Z,10.83
2023-04-28T18:10:03.559Z,10.85
2023-04-28T18:12:30.536Z,10.82
2023-04-28T18:14:59.269Z,10.79
2023-04-28T18:17:26.434Z,10.77
2023-04-28T18:19:57.150Z,10.70
2023-04-28T18:22:24.209Z,10.56
2023-04-28T18:24:51.795Z,10.63
2023-04-28T18:27:19.193Z,10.61
2023-04-28T18:29:46.036Z,10.57
2023-04-28T18:32:14.765Z,10.47
2023-04-28T18:34:42.294Z,10.40
2023-04-28T18:37:09.730Z,10.33
2023-04-28T18:39:36.932Z,10.12
2023-04-28T18:42:04.522Z,10.22
2023-04-28T18:44:31.579Z,10.18
2023-04-28T18:46:58.785Z,9.98
2023-04-28T18:49:26.065Z,10.08
2023-04-28T18:51:52.920Z,10.07
2023-04-28T18:54:20.206Z,10.05
2023-04-28T18:56:48.149Z,10.02
2023-04-28T18:59:15.084Z,9.93
2023-04-28T19:01:42.091Z,9.90
2023-04-28T19:04:09.246Z,9.82
2023-04-28T19:06:36.491Z,9.76
2023-04-28T19:09:03.516Z,9.70
2023-04-28T19:11:30.659Z,9.66
2023-04-28T19:13:58.280Z,9.61
2023-04-28T19:16:25.634Z,9.61
2023-04-28T19:18:52.559Z,9.65
2023-04-28T19:21:21.786Z,9.51
2023-04-28T19:23:48.842Z,9.70
2023-04-28T19:26:15.725Z,9.73
2023-04-28T19:28:43.367Z,9.83
2023-04-28T19:31:10.928Z,9.82
2023-04-28T19:33:37.723Z,9.84
2023-04-28T19:36:07.369Z,9.87
2023-04-28T19:38:35.606Z,9.81
2023-04-28T19:41:02.378Z,9.83
2023-04-28T19:43:29.437Z,9.75
2023-04-28T19:45:57.629Z,9.77
2023-04-28T19:48:24.716Z,9.71
2023-04-28T19:50:51.397Z,9.72
2023-04-28T19:53:19.664Z,9.73
2023-04-28T19:55:46.708Z,9.68
2023-04-28T19:58:14.714Z,9.68
2023-04-28T20:00:41.444Z,9.65
2023-04-28T20:03:08.778Z,9.59
2023-04-28T20:05:38.832Z,9.57
2023-04-28T20:08:05.622Z,9.57
2023-04-28T20:10:32.490Z,9.50
2023-04-28T20:12:59.528Z,9.51
2023-04-28T20:15:26.341Z,9.48
2023-04-28T20:17:53.033Z,9.40
2023-04-28T20:20:19.768Z,9.43
2023-04-28T20:22:48.920Z,9.46
2023-04-28T20:25:15.840Z,9.28
2023-04-28T20:27:44.266Z,9.46
2023-04-28T20:30:11.299Z,9.40
2023-04-28T20:32:38.492Z,9.37
2023-04-28T20:35:06.440Z,9.37
2023-04-28T20:37:34.314Z,9.42
2023-04-28T20:40:01.082Z,9.34
2023-04-28T20:42:28.162Z,9.28
2023-04-28T20:44:54.923Z,9.22
2023-04-28T20:47:21.874Z,9.06
2023-04-28T20:49:48.818Z,9.07
2023-04-28T20:52:15.796Z,8.93
2023-04-28T20:54:43.935Z,8.89
2023-04-28T20:57:11.432Z,8.85
2023-04-28T20:59:38.193Z,8.81
2023-04-28T21:02:05.058Z,8.75
2023-04-28T21:04:31.812Z,8.68
2023-04-28T21:06:58.486Z,8.68
2023-04-28T21:09:25.504Z,8.53
2023-04-28T21:11:52.782Z,8.44
2023-04-28T21:14:19.550Z,8.30
2023-04-28T21:16:49.308Z,8.25
2023-04-28T21:19:16.170Z,8.24
2023-04-28T21:21:42.983Z,8.18
2023-04-28T21:24:10.360Z,8.12
2023-04-28T21:26:37.192Z,8.10
2023-04-28T21:29:03.946Z,8.04
2023-04-28T21:31:31.469Z,7.98
2023-04-28T21:33:58.269Z,7.85
2023-04-28T21:36:25.067Z,7.81
2023-04-28T21:38:52.010Z,7.88
2023-04-28T21:41:18.704Z,7.70
2023-04-28T21:43:45.362Z,7.75
2023-04-28T21:46:13.334Z,7.74
2023-04-28T21:48:40.123Z,7.59
2023-04-28T21:51:06.906Z,7.65
2023-04-28T21:53:33.743Z,7.61
2023-04-28T21:56:00.506Z,7.60
2023-04-28T21:58:27.243Z,7.53
2023-04-28T22:00:55.270Z,7.42
2023-04-28T22:03:22.502Z,7.42
2023-04-28T22:05:49.547Z,7.50
2023-04-28T22:08:17.186Z,7.52
2023-04-28T22:10:47.949Z,7.58
2023-04-28T22:13:14.618Z,7.59
2023-04-28T22:15:42.454Z,7.46
2023-04-28T22:18:09.266Z,7.55
2023-04-28T22:20:36.196Z,7.61
2023-04-28T22:23:02.949Z,7.65
2023-04-28T22:25:29.702Z,7.70
2023-04-28T22:27:56.523Z,7.71
2023-04-28T22:30:25.789Z,7.69
2023-04-28T22:32:53.362Z,7.72
2023-04-28T22:35:20.202Z,7.73
2023-04-28T22:37:46.931Z,7.76
2023-04-28T22:40:13.975Z,7.77
2023-04-28T22:42:42.036Z,7.76
2023-04-28T22:45:10.609Z,7.72
2023-04-28T22:47:39.802Z,7.67
2023-04-28T22:50:10.661Z,7.69
2023-04-28T22:52:37.610Z,7.69
2023-04-28T22:55:04.931Z,7.63
2023-04-28T22:57:31.703Z,7.47
2023-04-28T22:59:58.525Z,7.57
2023-04-28T23:02:25.536Z,7.46
2023-04-28T23:04:52.561Z,7.24
2023-04-28T23:07:19.352Z,7.14
2023-04-28T23:09:45.999Z,7.00
2023-04-28T23:12:12.713Z,6.85
2023-04-28T23:14:39.413Z,6.65
2023-04-28T23:17:06.260Z,6.50
2023-04-28T23:19:32.993Z,6.38
2023-04-28T23:21:59.850Z,6.31
2023-04-28T23:24:27.511Z,6.24
2023-04-28T23:26:54.390Z,6.22
2023-04-28T23:29:20.996Z,6.17
2023-04-28T23:31:52.686Z,6.20
2023-04-28T23:34:19.482Z,6.14
2023-04-28T23:36:46.306Z,5.98
2023-04-28T23:39:13.716Z,5.96
2023-04-28T23:41:40.414Z,5.85
2023-04-28T23:44:07.422Z,5.77
2023-04-28T23:46:34.208Z,5.65
2023-04-28T23:49:01.008Z,5.42
2023-04-28T23:51:27.700Z,5.44
2023-04-28T23:53:54.385Z,5.67
2023-04-28T23:56:21.144Z,5.65
2023-04-28T23:58:47.853Z,5.63
